Maran Ariadne — SVCK4 — position and weather

sailwx.info

Track history (hours):
 
Tides and Currents Weather Stations Pressure Air Temp Water Temp Dewpoint Dewpoint Depression Visibility Wind Speed Wind Dir Waves Ship Positions

Maran Ariadne

Last reported at 2018-Feb-14 08:20 UTC. Time now 2018-Feb-21 03:54 UTC.
Position N 22°38' E 119°49'.

Length 336 m; draft 15 m.

Type: Tanker. MMSI: 241438000.

Date/timePositionNaut miles runAvg speedWind from/ knotsBaromVisibWave heightAir tempDewpointWater temp
2018-Feb-14 08:20N 22°38' E 119°49'412.7
2018-Feb-14 08:00N 22°42' E 119°50'712.0
2018-Feb-14 07:25N 22°49' E 119°49'512.2
2018-Feb-14 06:58N 22°54' E 119°49'612.8
2018-Feb-14 06:30N 23°00' E 119°49'613.0
2018-Feb-14 06:00N 23°07' E 119°48'713.7
2018-Feb-14 05:27N 23°14' E 119°48'613.8
2018-Feb-14 05:00N 23°20' E 119°48'713.8
2018-Feb-14 04:30N 23°27' E 119°49'713.8
2018-Feb-14 04:00N 23°34' E 119°48'713.2
2018-Feb-14 03:30N 23°41' E 119°50'612.8
2018-Feb-14 03:00N 23°47' E 119°51'612.6
2018-Feb-14 02:30N 23°53' E 119°53'612.7
2018-Feb-14 02:00N 23°59' E 119°56'713.0
2018-Feb-14 01:30N 24°05' E 119°59'713.1
2018-Feb-14 01:00N 24°11' E 120°02'712.9
2018-Feb-14 00:30N 24°17' E 120°04'613.0
2018-Feb-14 00:00N 24°22' E 120°08'713.6
2018-Feb-13 23:30N 24°28' E 120°12'713.7
2018-Feb-13 22:58N 24°34' E 120°16'4513.3
2018-Feb-13 19:36N 25°10' E 120°45'112.8
2018-Feb-13 19:29N 25°11' E 120°46'712.8
2018-Feb-13 18:57N 25°17' E 120°51'1212.2
2018-Feb-13 17:59N 25°23' E 121°02'612.0
2018-Feb-13 17:30N 25°26' E 121°08'611.4
2018-Feb-13 17:00N 25°28' E 121°14'711.4
2018-Feb-13 16:23N 25°32' E 121°20'  
Track history (hours):
 
Tides and Currents Weather Stations Pressure Air Temp Water Temp Dewpoint Dewpoint Depression Visibility Wind Speed Wind Dir Waves Ship Positions

Maran Ariadne

Last reported at 2018-Feb-14 08:20 UTC. Time now 2018-Feb-21 03:54 UTC.
Position N 22°38' E 119°49'.

Length 336 m; draft 15 m.

Type: Tanker. MMSI: 241438000.

Date/timePositionNaut miles runAvg speedWind from/ knotsBaromVisibWave heightAir tempDewpointWater temp
2018-Feb-14 08:20N 22°38' E 119°49'412.7
2018-Feb-14 08:00N 22°42' E 119°50'712.0
2018-Feb-14 07:25N 22°49' E 119°49'512.2
2018-Feb-14 06:58N 22°54' E 119°49'612.8
2018-Feb-14 06:30N 23°00' E 119°49'613.0
2018-Feb-14 06:00N 23°07' E 119°48'713.7
2018-Feb-14 05:27N 23°14' E 119°48'613.8
2018-Feb-14 05:00N 23°20' E 119°48'713.8
2018-Feb-14 04:30N 23°27' E 119°49'713.8
2018-Feb-14 04:00N 23°34' E 119°48'713.2
2018-Feb-14 03:30N 23°41' E 119°50'612.8
2018-Feb-14 03:00N 23°47' E 119°51'612.6
2018-Feb-14 02:30N 23°53' E 119°53'612.7
2018-Feb-14 02:00N 23°59' E 119°56'713.0
2018-Feb-14 01:30N 24°05' E 119°59'713.1
2018-Feb-14 01:00N 24°11' E 120°02'712.9
2018-Feb-14 00:30N 24°17' E 120°04'613.0
2018-Feb-14 00:00N 24°22' E 120°08'713.6
2018-Feb-13 23:30N 24°28' E 120°12'713.7
2018-Feb-13 22:58N 24°34' E 120°16'4513.3
2018-Feb-13 19:36N 25°10' E 120°45'112.8
2018-Feb-13 19:29N 25°11' E 120°46'712.8
2018-Feb-13 18:57N 25°17' E 120°51'1212.2
2018-Feb-13 17:59N 25°23' E 121°02'612.0
2018-Feb-13 17:30N 25°26' E 121°08'611.4
2018-Feb-13 17:00N 25°28' E 121°14'711.4
2018-Feb-13 16:23N 25°32' E 121°20'  

Dump ship's entire track history